sensor_id;sensor_type;location;lat;lon;timestamp;P1;durP1;ratioP1;P2;durP2;ratioP2
65047;SDS011;52089;51.362;-2.384;2022-08-21T00:00:29;10.77;;;1.93;;
65047;SDS011;52089;51.362;-2.384;2022-08-21T00:04:12;9.43;;;1.37;;
65047;SDS011;52089;51.362;-2.384;2022-08-21T00:08:03;7.25;;;1.55;;
65047;SDS011;52089;51.362;-2.384;2022-08-21T00:11:45;9.37;;;1.43;;
65047;SDS011;52089;51.362;-2.384;2022-08-21T00:15:29;9.47;;;1.63;;
65047;SDS011;52089;51.362;-2.384;2022-08-21T00:19:12;9.70;;;1.30;;
65047;SDS011;52089;51.362;-2.384;2022-08-21T00:22:54;6.17;;;1.33;;
65047;SDS011;52089;51.362;-2.384;2022-08-21T00:26:37;10.90;;;1.90;;
65047;SDS011;52089;51.362;-2.384;2022-08-21T00:30:21;11.80;;;1.90;;
65047;SDS011;52089;51.362;-2.384;2022-08-21T00:34:04;7.93;;;1.47;;
65047;SDS011;52089;51.362;-2.384;2022-08-21T00:37:48;9.33;;;3.73;;
65047;SDS011;52089;51.362;-2.384;2022-08-21T00:41:30;11.77;;;2.27;;
65047;SDS011;52089;51.362;-2.384;2022-08-21T00:45:19;10.03;;;1.47;;
65047;SDS011;52089;51.362;-2.384;2022-08-21T00:49:03;9.07;;;1.67;;
65047;SDS011;52089;51.362;-2.384;2022-08-21T00:52:47;14.00;;;1.60;;
65047;SDS011;52089;51.362;-2.384;2022-08-21T00:56:31;11.13;;;2.23;;
65047;SDS011;52089;51.362;-2.384;2022-08-21T01:00:16;9.93;;;1.73;;
65047;SDS011;52089;51.362;-2.384;2022-08-21T01:04:09;15.13;;;2.10;;
65047;SDS011;52089;51.362;-2.384;2022-08-21T01:07:50;10.10;;;2.07;;
65047;SDS011;52089;51.362;-2.384;2022-08-21T01:11:33;13.43;;;1.87;;
65047;SDS011;52089;51.362;-2.384;2022-08-21T01:15:15;5.77;;;1.30;;
65047;SDS011;52089;51.362;-2.384;2022-08-21T01:18:59;11.13;;;1.60;;
65047;SDS011;52089;51.362;-2.384;2022-08-21T01:22:41;8.20;;;1.50;;
65047;SDS011;52089;51.362;-2.384;2022-08-21T01:26:25;11.07;;;1.93;;
65047;SDS011;52089;51.362;-2.384;2022-08-21T01:34:04;11.47;;;1.80;;
65047;SDS011;52089;51.362;-2.384;2022-08-21T01:37:46;11.57;;;2.43;;
65047;SDS011;52089;51.362;-2.384;2022-08-21T01:41:29;12.27;;;2.27;;
65047;SDS011;52089;51.362;-2.384;2022-08-21T01:45:11;8.90;;;2.07;;
65047;SDS011;52089;51.362;-2.384;2022-08-21T01:48:54;9.77;;;1.43;;
65047;SDS011;52089;51.362;-2.384;2022-08-21T01:52:35;8.47;;;1.33;;
65047;SDS011;52089;51.362;-2.384;2022-08-21T01:56:18;12.13;;;1.97;;
65047;SDS011;52089;51.362;-2.384;2022-08-21T02:00:00;12.20;;;1.50;;
65047;SDS011;52089;51.362;-2.384;2022-08-21T02:03:42;12.60;;;2.60;;
65047;SDS011;52089;51.362;-2.384;2022-08-21T02:07:27;13.10;;;1.73;;
65047;SDS011;52089;51.362;-2.384;2022-08-21T02:11:09;13.43;;;2.07;;
65047;SDS011;52089;51.362;-2.384;2022-08-21T02:14:50;11.07;;;1.40;;
65047;SDS011;52089;51.362;-2.384;2022-08-21T02:18:33;12.53;;;2.20;;
65047;SDS011;52089;51.362;-2.384;2022-08-21T02:22:15;9.13;;;1.53;;
65047;SDS011;52089;51.362;-2.384;2022-08-21T02:25:58;11.37;;;1.63;;
65047;SDS011;52089;51.362;-2.384;2022-08-21T02:29:41;11.60;;;1.70;;
65047;SDS011;52089;51.362;-2.384;2022-08-21T02:33:23;10.40;;;1.47;;
65047;SDS011;52089;51.362;-2.384;2022-08-21T02:37:07;13.57;;;1.80;;
65047;SDS011;52089;51.362;-2.384;2022-08-21T02:40:49;15.87;;;1.90;;
65047;SDS011;52089;51.362;-2.384;2022-08-21T02:44:32;11.90;;;1.63;;
65047;SDS011;52089;51.362;-2.384;2022-08-21T02:48:16;11.07;;;1.60;;
65047;SDS011;52089;51.362;-2.384;2022-08-21T02:52:00;11.67;;;1.60;;
65047;SDS011;52089;51.362;-2.384;2022-08-21T02:55:43;11.60;;;1.80;;
65047;SDS011;52089;51.362;-2.384;2022-08-21T02:59:26;12.60;;;1.80;;
65047;SDS011;52089;51.362;-2.384;2022-08-21T03:03:08;10.03;;;1.63;;
65047;SDS011;52089;51.362;-2.384;2022-08-21T03:06:50;10.77;;;1.60;;
65047;SDS011;52089;51.362;-2.384;2022-08-21T03:10:32;13.40;;;2.07;;
65047;SDS011;52089;51.362;-2.384;2022-08-21T03:14:14;10.53;;;1.50;;
65047;SDS011;52089;51.362;-2.384;2022-08-21T03:17:57;7.37;;;1.47;;
65047;SDS011;52089;51.362;-2.384;2022-08-21T03:21:39;8.60;;;1.83;;
65047;SDS011;52089;51.362;-2.384;2022-08-21T03:25:21;13.53;;;1.80;;
65047;SDS011;52089;51.362;-2.384;2022-08-21T03:29:21;14.27;;;1.87;;
65047;SDS011;52089;51.362;-2.384;2022-08-21T03:33:03;12.50;;;1.60;;
65047;SDS011;52089;51.362;-2.384;2022-08-21T03:36:45;11.70;;;1.80;;
65047;SDS011;52089;51.362;-2.384;2022-08-21T03:40:27;7.90;;;1.37;;
65047;SDS011;52089;51.362;-2.384;2022-08-21T03:44:09;9.90;;;1.67;;
65047;SDS011;52089;51.362;-2.384;2022-08-21T03:47:52;13.60;;;2.03;;
65047;SDS011;52089;51.362;-2.384;2022-08-21T03:51:38;11.60;;;1.53;;
65047;SDS011;52089;51.362;-2.384;2022-08-21T03:55:20;13.37;;;1.80;;
65047;SDS011;52089;51.362;-2.384;2022-08-21T03:59:02;10.87;;;2.17;;
65047;SDS011;52089;51.362;-2.384;2022-08-21T04:02:44;11.33;;;1.53;;
65047;SDS011;52089;51.362;-2.384;2022-08-21T04:06:27;13.87;;;1.53;;
65047;SDS011;52089;51.362;-2.384;2022-08-21T04:10:09;8.30;;;1.60;;
65047;SDS011;52089;51.362;-2.384;2022-08-21T04:13:51;11.87;;;1.97;;
65047;SDS011;52089;51.362;-2.384;2022-08-21T04:17:33;10.07;;;1.63;;
65047;SDS011;52089;51.362;-2.384;2022-08-21T04:21:16;17.37;;;2.33;;
65047;SDS011;52089;51.362;-2.384;2022-08-21T04:25:00;8.73;;;1.47;;
65047;SDS011;52089;51.362;-2.384;2022-08-21T04:28:42;9.13;;;1.63;;
65047;SDS011;52089;51.362;-2.384;2022-08-21T04:32:25;9.80;;;1.60;;
65047;SDS011;52089;51.362;-2.384;2022-08-21T04:36:07;10.50;;;1.57;;
65047;SDS011;52089;51.362;-2.384;2022-08-21T04:39:49;9.73;;;1.70;;
65047;SDS011;52089;51.362;-2.384;2022-08-21T04:43:34;13.10;;;2.03;;
65047;SDS011;52089;51.362;-2.384;2022-08-21T04:47:16;12.30;;;1.80;;
65047;SDS011;52089;51.362;-2.384;2022-08-21T04:51:14;11.87;;;1.97;;
65047;SDS011;52089;51.362;-2.384;2022-08-21T04:55:00;11.97;;;1.43;;
65047;SDS011;52089;51.362;-2.384;2022-08-21T04:58:42;10.47;;;1.60;;
65047;SDS011;52089;51.362;-2.384;2022-08-21T05:02:24;8.33;;;1.40;;
65047;SDS011;52089;51.362;-2.384;2022-08-21T05:06:08;12.23;;;1.97;;
65047;SDS011;52089;51.362;-2.384;2022-08-21T05:09:53;9.13;;;1.70;;
65047;SDS011;52089;51.362;-2.384;2022-08-21T05:13:35;11.93;;;1.70;;
65047;SDS011;52089;51.362;-2.384;2022-08-21T05:17:17;13.90;;;2.27;;
65047;SDS011;52089;51.362;-2.384;2022-08-21T05:20:59;9.50;;;1.27;;
65047;SDS011;52089;51.362;-2.384;2022-08-21T05:24:41;11.17;;;1.60;;
65047;SDS011;52089;51.362;-2.384;2022-08-21T05:28:23;12.00;;;1.53;;
65047;SDS011;52089;51.362;-2.384;2022-08-21T05:32:11;8.47;;;1.93;;
65047;SDS011;52089;51.362;-2.384;2022-08-21T05:35:54;12.00;;;2.03;;
65047;SDS011;52089;51.362;-2.384;2022-08-21T05:39:39;12.00;;;1.70;;
65047;SDS011;52089;51.362;-2.384;2022-08-21T05:43:41;13.00;;;2.53;;
65047;SDS011;52089;51.362;-2.384;2022-08-21T05:47:23;8.13;;;1.50;;
65047;SDS011;52089;51.362;-2.384;2022-08-21T05:51:12;6.40;;;1.20;;
65047;SDS011;52089;51.362;-2.384;2022-08-21T05:54:56;8.57;;;1.50;;
65047;SDS011;52089;51.362;-2.384;2022-08-21T05:58:37;12.23;;;1.67;;
65047;SDS011;52089;51.362;-2.384;2022-08-21T06:02:20;8.33;;;1.33;;
65047;SDS011;52089;51.362;-2.384;2022-08-21T06:06:03;10.80;;;1.27;;
65047;SDS011;52089;51.362;-2.384;2022-08-21T06:09:45;8.97;;;1.40;;
65047;SDS011;52089;51.362;-2.384;2022-08-21T06:13:27;10.77;;;1.83;;
65047;SDS011;52089;51.362;-2.384;2022-08-21T06:17:10;10.03;;;1.40;;
65047;SDS011;52089;51.362;-2.384;2022-08-21T06:20:53;10.10;;;1.70;;
65047;SDS011;52089;51.362;-2.384;2022-08-21T06:24:37;10.43;;;1.83;;
65047;SDS011;52089;51.362;-2.384;2022-08-21T06:28:19;7.47;;;1.40;;
65047;SDS011;52089;51.362;-2.384;2022-08-21T06:32:02;8.03;;;1.47;;
65047;SDS011;52089;51.362;-2.384;2022-08-21T06:35:44;12.60;;;1.67;;
65047;SDS011;52089;51.362;-2.384;2022-08-21T06:39:26;11.97;;;1.40;;
65047;SDS011;52089;51.362;-2.384;2022-08-21T06:43:14;9.23;;;1.47;;
65047;SDS011;52089;51.362;-2.384;2022-08-21T06:46:57;11.60;;;1.40;;
65047;SDS011;52089;51.362;-2.384;2022-08-21T06:50:39;12.23;;;1.73;;
65047;SDS011;52089;51.362;-2.384;2022-08-21T06:54:21;12.03;;;1.70;;
65047;SDS011;52089;51.362;-2.384;2022-08-21T06:58:03;8.60;;;1.67;;
65047;SDS011;52089;51.362;-2.384;2022-08-21T07:01:46;9.07;;;1.20;;
65047;SDS011;52089;51.362;-2.384;2022-08-21T07:05:29;9.90;;;1.47;;
65047;SDS011;52089;51.362;-2.384;2022-08-21T07:09:11;9.43;;;1.50;;
65047;SDS011;52089;51.362;-2.384;2022-08-21T07:12:53;6.60;;;1.40;;
65047;SDS011;52089;51.362;-2.384;2022-08-21T07:16:41;7.70;;;1.67;;
65047;SDS011;52089;51.362;-2.384;2022-08-21T07:20:23;9.03;;;1.23;;
65047;SDS011;52089;51.362;-2.384;2022-08-21T07:24:05;8.07;;;1.40;;
65047;SDS011;52089;51.362;-2.384;2022-08-21T07:27:47;8.63;;;1.03;;
65047;SDS011;52089;51.362;-2.384;2022-08-21T07:31:29;9.50;;;1.50;;
65047;SDS011;52089;51.362;-2.384;2022-08-21T07:35:11;8.87;;;1.50;;
65047;SDS011;52089;51.362;-2.384;2022-08-21T07:38:53;10.90;;;1.63;;
65047;SDS011;52089;51.362;-2.384;2022-08-21T07:42:39;7.33;;;1.43;;
65047;SDS011;52089;51.362;-2.384;2022-08-21T07:46:24;9.17;;;1.30;;
65047;SDS011;52089;51.362;-2.384;2022-08-21T07:50:07;9.90;;;1.60;;
65047;SDS011;52089;51.362;-2.384;2022-08-21T07:53:50;10.40;;;2.27;;
65047;SDS011;52089;51.362;-2.384;2022-08-21T07:57:34;8.90;;;1.70;;
65047;SDS011;52089;51.362;-2.384;2022-08-21T08:01:22;8.70;;;1.57;;
65047;SDS011;52089;51.362;-2.384;2022-08-21T08:05:06;10.40;;;1.43;;
65047;SDS011;52089;51.362;-2.384;2022-08-21T08:08:50;12.00;;;1.70;;
65047;SDS011;52089;51.362;-2.384;2022-08-21T08:12:32;9.17;;;1.60;;
65047;SDS011;52089;51.362;-2.384;2022-08-21T08:16:19;7.87;;;1.37;;
65047;SDS011;52089;51.362;-2.384;2022-08-21T08:20:01;8.10;;;1.40;;
65047;SDS011;52089;51.362;-2.384;2022-08-21T08:23:43;6.33;;;1.20;;
65047;SDS011;52089;51.362;-2.384;2022-08-21T08:27:26;9.23;;;1.47;;
65047;SDS011;52089;51.362;-2.384;2022-08-21T08:31:08;11.73;;;1.93;;
65047;SDS011;52089;51.362;-2.384;2022-08-21T08:34:50;7.50;;;1.50;;
65047;SDS011;52089;51.362;-2.384;2022-08-21T08:38:33;9.47;;;1.33;;
65047;SDS011;52089;51.362;-2.384;2022-08-21T08:42:17;7.13;;;1.00;;
65047;SDS011;52089;51.362;-2.384;2022-08-21T08:46:16;9.80;;;1.77;;
65047;SDS011;52089;51.362;-2.384;2022-08-21T08:53:55;8.77;;;1.57;;
65047;SDS011;52089;51.362;-2.384;2022-08-21T08:57:42;10.30;;;1.60;;
65047;SDS011;52089;51.362;-2.384;2022-08-21T09:01:30;6.77;;;1.20;;
65047;SDS011;52089;51.362;-2.384;2022-08-21T09:16:50;6.73;;;1.30;;
65047;SDS011;52089;51.362;-2.384;2022-08-21T09:29:04;4.67;;;1.10;;
65047;SDS011;52089;51.362;-2.384;2022-08-21T09:32:48;4.83;;;0.90;;
65047;SDS011;52089;51.362;-2.384;2022-08-21T09:44:11;3.47;;;0.80;;
65047;SDS011;52089;51.362;-2.384;2022-08-21T09:47:53;3.60;;;1.10;;
65047;SDS011;52089;51.362;-2.384;2022-08-21T09:51:35;2.65;;;0.85;;
65047;SDS011;52089;51.362;-2.384;2022-08-21T09:55:20;3.28;;;1.00;;
65047;SDS011;52089;51.362;-2.384;2022-08-21T09:59:32;5.82;;;1.15;;
65047;SDS011;52089;51.362;-2.384;2022-08-21T10:03:18;5.72;;;1.20;;
65047;SDS011;52089;51.362;-2.384;2022-08-21T10:07:09;4.35;;;1.13;;
65047;SDS011;52089;51.362;-2.384;2022-08-21T10:10:57;3.35;;;0.98;;
65047;SDS011;52089;51.362;-2.384;2022-08-21T10:14:59;5.47;;;1.33;;
65047;SDS011;52089;51.362;-2.384;2022-08-21T10:27:19;3.67;;;1.20;;
65047;SDS011;52089;51.362;-2.384;2022-08-21T10:55:39;3.65;;;1.20;;
65047;SDS011;52089;51.362;-2.384;2022-08-21T11:03:21;3.25;;;1.10;;
65047;SDS011;52089;51.362;-2.384;2022-08-21T11:11:29;4.32;;;1.20;;
65047;SDS011;52089;51.362;-2.384;2022-08-21T12:44:09;3.67;;;1.30;;
65047;SDS011;52089;51.362;-2.384;2022-08-21T12:55:37;4.45;;;1.40;;
65047;SDS011;52089;51.362;-2.384;2022-08-21T12:59:22;3.80;;;1.73;;
65047;SDS011;52089;51.362;-2.384;2022-08-21T13:03:04;4.78;;;1.30;;
65047;SDS011;52089;51.362;-2.384;2022-08-21T13:06:49;2.88;;;1.08;;
65047;SDS011;52089;51.362;-2.384;2022-08-21T13:10:34;3.10;;;1.13;;
65047;SDS011;52089;51.362;-2.384;2022-08-21T13:14:25;5.78;;;1.20;;
65047;SDS011;52089;51.362;-2.384;2022-08-21T13:18:19;4.03;;;1.20;;
65047;SDS011;52089;51.362;-2.384;2022-08-21T13:22:13;3.35;;;1.20;;
65047;SDS011;52089;51.362;-2.384;2022-08-21T13:26:18;5.53;;;1.05;;
65047;SDS011;52089;51.362;-2.384;2022-08-21T13:33:53;3.67;;;1.02;;
65047;SDS011;52089;51.362;-2.384;2022-08-21T13:37:37;4.13;;;1.08;;
65047;SDS011;52089;51.362;-2.384;2022-08-21T13:41:26;2.28;;;0.93;;
65047;SDS011;52089;51.362;-2.384;2022-08-21T13:45:18;2.80;;;1.00;;
65047;SDS011;52089;51.362;-2.384;2022-08-21T13:49:05;5.75;;;2.00;;
65047;SDS011;52089;51.362;-2.384;2022-08-21T13:52:54;4.03;;;1.00;;
65047;SDS011;52089;51.362;-2.384;2022-08-21T13:56:44;3.42;;;1.00;;
65047;SDS011;52089;51.362;-2.384;2022-08-21T14:00:28;4.53;;;1.30;;
65047;SDS011;52089;51.362;-2.384;2022-08-21T14:04:16;2.80;;;1.08;;
65047;SDS011;52089;51.362;-2.384;2022-08-21T14:11:48;5.93;;;1.33;;
65047;SDS011;52089;51.362;-2.384;2022-08-21T14:15:31;4.60;;;1.20;;
65047;SDS011;52089;51.362;-2.384;2022-08-21T14:19:26;5.38;;;1.35;;
65047;SDS011;52089;51.362;-2.384;2022-08-21T14:23:24;3.83;;;1.27;;
65047;SDS011;52089;51.362;-2.384;2022-08-21T14:27:07;7.10;;;1.58;;
65047;SDS011;52089;51.362;-2.384;2022-08-21T14:30:49;2.92;;;1.00;;
65047;SDS011;52089;51.362;-2.384;2022-08-21T14:34:34;4.45;;;1.73;;
65047;SDS011;52089;51.362;-2.384;2022-08-21T14:38:18;5.82;;;1.30;;
65047;SDS011;52089;51.362;-2.384;2022-08-21T14:42:02;5.07;;;1.20;;
65047;SDS011;52089;51.362;-2.384;2022-08-21T14:45:44;3.63;;;1.30;;
65047;SDS011;52089;51.362;-2.384;2022-08-21T15:29:02;4.20;;;1.85;;
65047;SDS011;52089;51.362;-2.384;2022-08-21T15:32:47;5.72;;;1.92;;
65047;SDS011;52089;51.362;-2.384;2022-08-21T15:36:29;4.95;;;2.00;;
65047;SDS011;52089;51.362;-2.384;2022-08-21T15:40:11;5.43;;;2.20;;
65047;SDS011;52089;51.362;-2.384;2022-08-21T15:43:54;4.65;;;1.30;;
65047;SDS011;52089;51.362;-2.384;2022-08-21T15:47:37;4.47;;;1.13;;
65047;SDS011;52089;51.362;-2.384;2022-08-21T15:51:20;4.07;;;1.13;;
65047;SDS011;52089;51.362;-2.384;2022-08-21T15:55:02;4.93;;;1.30;;
65047;SDS011;52089;51.362;-2.384;2022-08-21T15:58:45;2.58;;;0.98;;
65047;SDS011;52089;51.362;-2.384;2022-08-21T16:02:29;4.22;;;1.17;;
65047;SDS011;52089;51.362;-2.384;2022-08-21T16:06:12;3.85;;;1.40;;
65047;SDS011;52089;51.362;-2.384;2022-08-21T16:09:54;4.55;;;1.40;;
65047;SDS011;52089;51.362;-2.384;2022-08-21T16:13:40;5.38;;;1.48;;
65047;SDS011;52089;51.362;-2.384;2022-08-21T16:17:26;4.53;;;1.33;;
65047;SDS011;52089;51.362;-2.384;2022-08-21T16:21:10;4.40;;;1.27;;
65047;SDS011;52089;51.362;-2.384;2022-08-21T16:24:52;4.50;;;1.33;;
65047;SDS011;52089;51.362;-2.384;2022-08-21T16:28:35;4.45;;;1.10;;
65047;SDS011;52089;51.362;-2.384;2022-08-21T16:32:19;4.18;;;1.27;;
65047;SDS011;52089;51.362;-2.384;2022-08-21T16:36:01;4.07;;;1.00;;
65047;SDS011;52089;51.362;-2.384;2022-08-21T16:39:44;4.00;;;1.20;;
65047;SDS011;52089;51.362;-2.384;2022-08-21T16:43:27;6.15;;;1.40;;
65047;SDS011;52089;51.362;-2.384;2022-08-21T16:47:10;4.05;;;1.00;;
65047;SDS011;52089;51.362;-2.384;2022-08-21T16:51:07;7.72;;;1.30;;
65047;SDS011;52089;51.362;-2.384;2022-08-21T16:54:49;6.70;;;1.20;;
65047;SDS011;52089;51.362;-2.384;2022-08-21T16:58:32;6.68;;;1.08;;
65047;SDS011;52089;51.362;-2.384;2022-08-21T17:06:07;6.05;;;1.20;;
65047;SDS011;52089;51.362;-2.384;2022-08-21T17:09:50;6.53;;;1.30;;
65047;SDS011;52089;51.362;-2.384;2022-08-21T17:13:32;8.03;;;1.70;;
65047;SDS011;52089;51.362;-2.384;2022-08-21T17:17:14;6.13;;;1.53;;
65047;SDS011;52089;51.362;-2.384;2022-08-21T17:20:57;9.50;;;1.80;;
65047;SDS011;52089;51.362;-2.384;2022-08-21T17:24:38;5.37;;;1.47;;
65047;SDS011;52089;51.362;-2.384;2022-08-21T17:28:26;6.63;;;1.43;;
65047;SDS011;52089;51.362;-2.384;2022-08-21T17:32:17;6.38;;;1.58;;
65047;SDS011;52089;51.362;-2.384;2022-08-21T17:35:59;3.77;;;1.10;;
65047;SDS011;52089;51.362;-2.384;2022-08-21T17:39:41;9.53;;;1.70;;
65047;SDS011;52089;51.362;-2.384;2022-08-21T17:43:23;5.03;;;1.43;;
65047;SDS011;52089;51.362;-2.384;2022-08-21T17:47:05;6.70;;;1.67;;
65047;SDS011;52089;51.362;-2.384;2022-08-21T17:50:48;7.30;;;1.83;;
65047;SDS011;52089;51.362;-2.384;2022-08-21T17:54:30;5.60;;;2.07;;
65047;SDS011;52089;51.362;-2.384;2022-08-21T17:58:12;5.33;;;1.40;;
65047;SDS011;52089;51.362;-2.384;2022-08-21T18:01:55;6.37;;;1.90;;
65047;SDS011;52089;51.362;-2.384;2022-08-21T18:05:42;7.77;;;2.00;;
65047;SDS011;52089;51.362;-2.384;2022-08-21T18:09:25;7.90;;;1.73;;
65047;SDS011;52089;51.362;-2.384;2022-08-21T18:13:09;8.83;;;2.20;;
65047;SDS011;52089;51.362;-2.384;2022-08-21T18:16:54;8.80;;;1.77;;
65047;SDS011;52089;51.362;-2.384;2022-08-21T18:20:37;8.37;;;2.10;;
65047;SDS011;52089;51.362;-2.384;2022-08-21T18:24:19;9.73;;;1.63;;
65047;SDS011;52089;51.362;-2.384;2022-08-21T18:28:03;5.90;;;1.80;;
65047;SDS011;52089;51.362;-2.384;2022-08-21T18:31:47;7.40;;;1.77;;
65047;SDS011;52089;51.362;-2.384;2022-08-21T18:35:29;6.93;;;1.87;;
65047;SDS011;52089;51.362;-2.384;2022-08-21T18:39:12;6.83;;;2.03;;
65047;SDS011;52089;51.362;-2.384;2022-08-21T18:43:14;6.47;;;2.00;;
65047;SDS011;52089;51.362;-2.384;2022-08-21T18:47:04;5.30;;;1.67;;
65047;SDS011;52089;51.362;-2.384;2022-08-21T18:50:48;7.38;;;2.05;;
65047;SDS011;52089;51.362;-2.384;2022-08-21T18:54:30;6.23;;;1.80;;
65047;SDS011;52089;51.362;-2.384;2022-08-21T18:58:13;7.17;;;1.93;;
65047;SDS011;52089;51.362;-2.384;2022-08-21T19:01:55;5.23;;;1.53;;
65047;SDS011;52089;51.362;-2.384;2022-08-21T19:05:37;5.50;;;1.50;;
65047;SDS011;52089;51.362;-2.384;2022-08-21T19:09:23;5.77;;;1.60;;
65047;SDS011;52089;51.362;-2.384;2022-08-21T19:13:05;4.83;;;1.70;;
65047;SDS011;52089;51.362;-2.384;2022-08-21T19:16:47;10.00;;;1.73;;
65047;SDS011;52089;51.362;-2.384;2022-08-21T19:20:31;6.37;;;1.80;;
65047;SDS011;52089;51.362;-2.384;2022-08-21T19:24:17;6.70;;;1.70;;
65047;SDS011;52089;51.362;-2.384;2022-08-21T19:28:04;5.60;;;1.50;;
65047;SDS011;52089;51.362;-2.384;2022-08-21T19:31:52;6.77;;;1.87;;
65047;SDS011;52089;51.362;-2.384;2022-08-21T19:35:34;6.27;;;1.60;;
65047;SDS011;52089;51.362;-2.384;2022-08-21T19:39:16;9.43;;;2.07;;
65047;SDS011;52089;51.362;-2.384;2022-08-21T19:42:58;9.60;;;3.77;;
65047;SDS011;52089;51.362;-2.384;2022-08-21T19:46:41;7.90;;;1.70;;
65047;SDS011;52089;51.362;-2.384;2022-08-21T19:50:24;9.10;;;2.07;;
65047;SDS011;52089;51.362;-2.384;2022-08-21T19:54:14;6.73;;;1.40;;
65047;SDS011;52089;51.362;-2.384;2022-08-21T20:02:03;9.43;;;1.90;;
65047;SDS011;52089;51.362;-2.384;2022-08-21T20:05:45;8.57;;;1.90;;
65047;SDS011;52089;51.362;-2.384;2022-08-21T20:09:29;8.63;;;1.97;;
65047;SDS011;52089;51.362;-2.384;2022-08-21T20:13:12;9.30;;;2.10;;
65047;SDS011;52089;51.362;-2.384;2022-08-21T20:16:54;8.23;;;2.30;;
65047;SDS011;52089;51.362;-2.384;2022-08-21T20:20:39;9.60;;;2.33;;
65047;SDS011;52089;51.362;-2.384;2022-08-21T20:24:26;9.60;;;2.57;;
65047;SDS011;52089;51.362;-2.384;2022-08-21T20:28:08;7.47;;;1.73;;
65047;SDS011;52089;51.362;-2.384;2022-08-21T20:31:51;9.87;;;1.70;;
65047;SDS011;52089;51.362;-2.384;2022-08-21T20:35:36;9.90;;;1.50;;
65047;SDS011;52089;51.362;-2.384;2022-08-21T20:39:18;7.43;;;1.73;;
65047;SDS011;52089;51.362;-2.384;2022-08-21T20:43:04;9.97;;;1.63;;
65047;SDS011;52089;51.362;-2.384;2022-08-21T20:46:52;7.30;;;1.93;;
65047;SDS011;52089;51.362;-2.384;2022-08-21T20:50:36;8.87;;;1.57;;
65047;SDS011;52089;51.362;-2.384;2022-08-21T20:58:32;6.17;;;1.47;;
65047;SDS011;52089;51.362;-2.384;2022-08-21T21:05:57;6.87;;;1.40;;
65047;SDS011;52089;51.362;-2.384;2022-08-21T21:09:43;7.53;;;1.20;;
65047;SDS011;52089;51.362;-2.384;2022-08-21T21:13:28;6.30;;;1.10;;
65047;SDS011;52089;51.362;-2.384;2022-08-21T21:17:16;7.03;;;1.40;;
65047;SDS011;52089;51.362;-2.384;2022-08-21T21:24:58;5.93;;;1.00;;
65047;SDS011;52089;51.362;-2.384;2022-08-21T21:28:45;9.40;;;1.30;;
65047;SDS011;52089;51.362;-2.384;2022-08-21T21:32:36;6.43;;;1.57;;
65047;SDS011;52089;51.362;-2.384;2022-08-21T21:36:29;7.60;;;1.40;;
65047;SDS011;52089;51.362;-2.384;2022-08-21T21:44:36;9.13;;;1.80;;
65047;SDS011;52089;51.362;-2.384;2022-08-21T21:52:30;7.67;;;1.50;;
65047;SDS011;52089;51.362;-2.384;2022-08-21T22:00:21;7.97;;;1.10;;
65047;SDS011;52089;51.362;-2.384;2022-08-21T22:13:13;9.03;;;1.40;;
65047;SDS011;52089;51.362;-2.384;2022-08-21T22:21:26;8.67;;;1.70;;
65047;SDS011;52089;51.362;-2.384;2022-08-21T22:25:16;7.17;;;1.50;;
65047;SDS011;52089;51.362;-2.384;2022-08-21T22:29:01;8.93;;;1.90;;
65047;SDS011;52089;51.362;-2.384;2022-08-21T22:32:47;10.30;;;2.10;;
65047;SDS011;52089;51.362;-2.384;2022-08-21T22:36:32;8.33;;;2.10;;
65047;SDS011;52089;51.362;-2.384;2022-08-21T22:40:22;7.10;;;1.57;;
65047;SDS011;52089;51.362;-2.384;2022-08-21T22:44:07;9.27;;;1.50;;
65047;SDS011;52089;51.362;-2.384;2022-08-21T22:48:04;5.97;;;1.37;;
65047;SDS011;52089;51.362;-2.384;2022-08-21T22:52:07;8.13;;;1.70;;
65047;SDS011;52089;51.362;-2.384;2022-08-21T22:56:05;11.17;;;1.67;;
65047;SDS011;52089;51.362;-2.384;2022-08-21T23:03:55;9.10;;;1.47;;
65047;SDS011;52089;51.362;-2.384;2022-08-21T23:07:40;10.00;;;1.83;;
65047;SDS011;52089;51.362;-2.384;2022-08-21T23:11:38;10.00;;;2.10;;
65047;SDS011;52089;51.362;-2.384;2022-08-21T23:15:22;17.27;;;8.60;;
65047;SDS011;52089;51.362;-2.384;2022-08-21T23:23:06;11.13;;;2.20;;
65047;SDS011;52089;51.362;-2.384;2022-08-21T23:51:11;7.33;;;2.00;;
